createdAt,value
2018-12-17T00:01:21.135Z,82.55
2018-12-17T00:03:47.412Z,82.84
2018-12-17T00:06:13.691Z,83.05
2018-12-17T00:08:39.983Z,83.16
2018-12-17T00:11:06.294Z,83.42
2018-12-17T00:13:32.574Z,83.53
2018-12-17T00:15:58.869Z,82.96
2018-12-17T00:18:25.175Z,83.21
2018-12-17T00:20:51.451Z,83.60
2018-12-17T00:23:17.750Z,83.33
2018-12-17T00:25:44.041Z,83.65
2018-12-17T00:28:10.322Z,83.31
2018-12-17T00:30:36.615Z,83.52
2018-12-17T00:33:02.893Z,83.58
2018-12-17T00:35:29.184Z,84.14
2018-12-17T00:37:55.471Z,83.79
2018-12-17T00:40:21.766Z,83.69
2018-12-17T00:42:48.063Z,83.61
2018-12-17T00:45:14.352Z,83.50
2018-12-17T00:47:40.634Z,83.58
2018-12-17T00:50:06.920Z,83.42
2018-12-17T00:52:33.191Z,83.42
2018-12-17T00:54:59.469Z,83.12
2018-12-17T00:57:25.742Z,83.08
2018-12-17T00:59:52.034Z,83.02
2018-12-17T01:02:18.318Z,82.65
2018-12-17T01:04:44.612Z,83.08
2018-12-17T01:07:10.893Z,82.79
2018-12-17T01:09:37.185Z,82.49
2018-12-17T01:12:03.463Z,82.68
2018-12-17T01:14:29.744Z,83.18
2018-12-17T01:16:56.058Z,83.10
2018-12-17T01:19:22.337Z,83.05
2018-12-17T01:21:48.631Z,82.95
2018-12-17T01:24:14.980Z,83.10
2018-12-17T01:26:41.224Z,82.95
2018-12-17T01:29:07.531Z,82.64
2018-12-17T01:31:33.816Z,82.91
2018-12-17T01:34:00.116Z,83.46
2018-12-17T01:36:26.410Z,83.34
2018-12-17T01:38:52.708Z,83.00
2018-12-17T01:41:19.049Z,83.11
2018-12-17T01:43:45.325Z,82.88
2018-12-17T01:46:11.617Z,82.88
2018-12-17T01:48:37.915Z,82.95
2018-12-17T01:51:04.222Z,82.68
2018-12-17T01:53:30.518Z,82.24
2018-12-17T01:55:56.806Z,82.45
2018-12-17T01:58:28.998Z,82.53
2018-12-17T02:00:49.365Z,82.88
2018-12-17T02:03:15.644Z,82.77
2018-12-17T02:05:41.961Z,83.01
2018-12-17T02:08:08.250Z,82.92
2018-12-17T02:10:34.548Z,83.16
2018-12-17T02:13:00.827Z,82.96
2018-12-17T02:15:27.099Z,82.87
2018-12-17T02:17:53.403Z,83.02
2018-12-17T02:20:19.695Z,82.87
2018-12-17T02:22:46.019Z,82.72
2018-12-17T02:25:12.327Z,82.96
2018-12-17T02:27:38.624Z,82.83
2018-12-17T02:30:08.394Z,82.79
2018-12-17T02:32:34.676Z,82.94
2018-12-17T02:35:00.987Z,82.80
2018-12-17T02:37:27.271Z,82.72
2018-12-17T02:39:53.545Z,81.89
2018-12-17T02:42:19.845Z,82.01
2018-12-17T02:44:46.156Z,82.22
2018-12-17T02:47:12.448Z,81.81
2018-12-17T02:49:38.741Z,82.35
2018-12-17T02:52:05.036Z,82.06
2018-12-17T02:54:31.378Z,81.87
2018-12-17T02:56:57.654Z,81.96
2018-12-17T02:59:23.949Z,82.18
2018-12-17T03:01:50.232Z,82.08
2018-12-17T03:04:16.530Z,81.43
2018-12-17T03:06:42.865Z,81.61
2018-12-17T03:09:09.149Z,81.06
2018-12-17T03:11:35.424Z,81.35
2018-12-17T03:14:01.722Z,81.37
2018-12-17T03:16:28.020Z,81.50
2018-12-17T03:18:54.303Z,81.30
2018-12-17T03:21:20.582Z,81.42
2018-12-17T03:23:46.879Z,81.87
2018-12-17T03:26:13.157Z,82.18
2018-12-17T03:28:39.436Z,82.12
2018-12-17T03:31:05.731Z,82.02
2018-12-17T03:33:32.029Z,82.25
2018-12-17T03:35:58.367Z,81.57
2018-12-17T03:38:24.679Z,81.80
2018-12-17T03:40:51.050Z,81.96
2018-12-17T03:43:17.247Z,81.96
2018-12-17T03:45:43.553Z,82.19
2018-12-17T03:48:09.851Z,81.86
2018-12-17T03:50:36.114Z,81.87
2018-12-17T03:53:02.405Z,82.05
2018-12-17T03:55:28.688Z,82.45
2018-12-17T03:57:55.015Z,82.41
2018-12-17T04:00:21.288Z,82.15
2018-12-17T04:02:47.554Z,81.98
2018-12-17T04:05:13.836Z,81.69
2018-12-17T04:07:40.113Z,81.83
2018-12-17T04:10:06.383Z,82.02
2018-12-17T04:12:32.685Z,81.95
2018-12-17T04:14:58.979Z,81.89
2018-12-17T04:17:25.292Z,82.05
2018-12-17T04:19:51.578Z,82.09
2018-12-17T04:22:17.880Z,82.03
2018-12-17T04:24:44.175Z,82.15
2018-12-17T04:27:10.476Z,82.05
2018-12-17T04:29:36.763Z,82.13
2018-12-17T04:32:03.076Z,82.37
2018-12-17T04:34:29.356Z,81.98
2018-12-17T04:36:55.651Z,81.95
2018-12-17T04:39:21.952Z,81.81
2018-12-17T04:41:48.260Z,82.13
2018-12-17T04:44:14.540Z,82.14
2018-12-17T04:46:40.870Z,82.56
2018-12-17T04:49:07.145Z,82.72
2018-12-17T04:51:33.447Z,82.47
2018-12-17T04:53:59.750Z,82.81
2018-12-17T04:56:26.038Z,82.92
2018-12-17T04:58:52.317Z,82.92
2018-12-17T05:01:18.624Z,83.26
2018-12-17T05:03:45.051Z,83.19
2018-12-17T05:06:11.358Z,82.80
2018-12-17T05:08:37.630Z,82.55
2018-12-17T05:11:03.917Z,83.12
2018-12-17T05:13:30.197Z,83.12
2018-12-17T05:15:56.548Z,83.56
2018-12-17T05:18:22.844Z,83.38
2018-12-17T05:20:49.124Z,83.31
2018-12-17T05:23:15.421Z,83.35
2018-12-17T05:25:41.709Z,83.74
2018-12-17T05:28:08.012Z,83.58
2018-12-17T05:30:34.304Z,82.96
2018-12-17T05:33:00.604Z,82.81
2018-12-17T05:35:26.921Z,83.30
2018-12-17T05:37:53.212Z,83.25
2018-12-17T05:40:19.514Z,83.61
2018-12-17T05:42:45.807Z,83.52
2018-12-17T05:45:12.121Z,83.67
2018-12-17T05:47:38.411Z,83.79
2018-12-17T05:50:04.725Z,83.81
2018-12-17T05:52:30.997Z,83.82
2018-12-17T05:54:57.271Z,83.94
2018-12-17T05:57:23.582Z,84.25
2018-12-17T05:59:49.875Z,83.58
2018-12-17T06:02:16.160Z,82.44
2018-12-17T06:04:42.467Z,83.23
2018-12-17T06:07:08.745Z,83.69
2018-12-17T06:09:35.032Z,83.60
2018-12-17T06:12:01.311Z,83.86
2018-12-17T06:14:27.608Z,83.94
2018-12-17T06:16:53.927Z,83.90
2018-12-17T06:19:20.212Z,83.93
2018-12-17T06:21:46.508Z,83.73
2018-12-17T06:24:12.808Z,83.84
2018-12-17T06:26:39.113Z,83.65
2018-12-17T06:29:05.410Z,84.26
2018-12-17T06:31:31.701Z,83.72
2018-12-17T06:33:57.998Z,83.94
2018-12-17T06:36:24.283Z,83.83
2018-12-17T06:38:50.581Z,83.83
2018-12-17T06:41:16.932Z,83.91
2018-12-17T06:43:43.215Z,83.72
2018-12-17T06:46:09.505Z,83.75
2018-12-17T06:48:35.782Z,83.53
2018-12-17T06:51:02.071Z,83.55
2018-12-17T06:53:28.351Z,83.30
2018-12-17T06:55:54.657Z,82.50
2018-12-17T06:58:20.980Z,82.76
2018-12-17T07:00:47.260Z,82.38
2018-12-17T07:03:13.540Z,82.53
2018-12-17T07:05:39.840Z,82.16
2018-12-17T07:08:06.123Z,82.48
2018-12-17T07:10:32.407Z,82.27
2018-12-17T07:12:58.758Z,82.55
2018-12-17T07:15:25.085Z,82.66
2018-12-17T07:17:51.370Z,82.79
2018-12-17T07:20:17.671Z,82.67
2018-12-17T07:22:43.964Z,82.78
2018-12-17T07:25:10.237Z,82.51
2018-12-17T07:27:36.549Z,82.31
2018-12-17T07:30:02.854Z,82.20
2018-12-17T07:32:29.152Z,82.06
2018-12-17T07:34:55.449Z,82.35
2018-12-17T07:37:21.757Z,82.34
2018-12-17T07:39:48.042Z,82.34
2018-12-17T07:42:14.324Z,81.98
2018-12-17T07:44:40.620Z,81.98
2018-12-17T07:47:06.892Z,81.83
2018-12-17T07:49:33.192Z,81.28
2018-12-17T07:51:59.553Z,81.00
2018-12-17T07:54:25.793Z,81.21
2018-12-17T07:56:52.064Z,80.96
2018-12-17T07:59:18.344Z,80.54
2018-12-17T08:01:44.647Z,80.27
2018-12-17T08:04:10.898Z,80.45
2018-12-17T08:06:37.214Z,80.24
2018-12-17T08:09:03.489Z,79.37
2018-12-17T08:11:29.826Z,78.85
2018-12-17T08:13:56.130Z,78.84
2018-12-17T08:16:22.419Z,78.67
2018-12-17T08:18:49.847Z,78.65
2018-12-17T08:21:14.995Z,78.85
2018-12-17T08:23:41.332Z,78.47
2018-12-17T08:26:07.632Z,78.28
2018-12-17T08:28:33.944Z,78.61
2018-12-17T08:31:00.308Z,78.56
2018-12-17T08:33:26.591Z,78.55
2018-12-17T08:35:52.878Z,77.27
2018-12-17T08:38:19.178Z,77.05
2018-12-17T08:40:45.452Z,76.34
2018-12-17T08:43:11.736Z,76.09
2018-12-17T08:45:38.046Z,75.87
2018-12-17T08:48:04.414Z,74.58
2018-12-17T08:50:30.716Z,73.37
2018-12-17T08:52:56.991Z,71.86
2018-12-17T08:55:23.263Z,69.91
2018-12-17T08:57:49.578Z,70.14
2018-12-17T09:00:15.887Z,71.24
2018-12-17T09:02:42.164Z,71.42
2018-12-17T09:05:08.461Z,69.47
2018-12-17T09:07:34.744Z,68.91
2018-12-17T09:10:01.056Z,68.86
2018-12-17T09:12:27.347Z,68.28
2018-12-17T09:14:53.641Z,67.47
2018-12-17T09:17:19.953Z,68.01
2018-12-17T09:19:46.257Z,69.65
2018-12-17T09:22:12.546Z,70.72
2018-12-17T09:24:38.848Z,71.42
2018-12-17T09:27:05.130Z,71.98
2018-12-17T09:29:31.426Z,72.42
2018-12-17T09:31:57.699Z,72.60
2018-12-17T09:34:24.017Z,71.68
2018-12-17T09:36:50.301Z,71.33
2018-12-17T09:39:16.602Z,70.95
2018-12-17T09:41:42.926Z,70.99
2018-12-17T09:44:09.218Z,71.42
2018-12-17T09:46:35.492Z,72.08
2018-12-17T09:49:01.788Z,71.98
2018-12-17T09:51:28.079Z,71.35
2018-12-17T09:53:54.375Z,71.69
2018-12-17T09:56:20.666Z,72.84
2018-12-17T09:58:46.962Z,72.33
2018-12-17T10:01:13.247Z,72.17
2018-12-17T10:03:39.554Z,72.71
2018-12-17T10:06:05.865Z,72.71
2018-12-17T10:08:32.168Z,73.58
2018-12-17T10:10:58.446Z,73.00
2018-12-17T10:13:24.757Z,73.74
2018-12-17T10:15:51.030Z,73.54
2018-12-17T10:18:17.348Z,73.12
2018-12-17T10:20:43.621Z,73.74
2018-12-17T10:23:09.920Z,73.56
2018-12-17T10:25:36.215Z,73.57
2018-12-17T10:28:02.487Z,73.67
2018-12-17T10:30:32.549Z,73.87
2018-12-17T10:32:55.072Z,74.21
2018-12-17T10:35:21.369Z,74.18
2018-12-17T10:37:47.679Z,73.79
2018-12-17T10:40:13.969Z,73.58
2018-12-17T10:42:40.261Z,72.99
2018-12-17T10:45:06.541Z,73.01
2018-12-17T10:47:32.838Z,72.37
2018-12-17T10:49:59.141Z,71.59
2018-12-17T10:52:25.444Z,71.94
2018-12-17T10:54:51.738Z,71.73
2018-12-17T10:57:18.011Z,71.22
2018-12-17T10:59:44.321Z,71.37
2018-12-17T11:02:10.591Z,70.96
2018-12-17T11:04:36.875Z,70.72
2018-12-17T11:07:03.171Z,70.17
2018-12-17T11:09:29.455Z,70.90
2018-12-17T11:11:56.449Z,70.48
2018-12-17T11:14:22.029Z,70.17
2018-12-17T11:16:48.315Z,69.17
2018-12-17T11:19:14.600Z,69.52
2018-12-17T11:21:40.935Z,69.95
2018-12-17T11:24:07.221Z,70.45
2018-12-17T11:26:33.506Z,71.22
2018-12-17T11:28:59.811Z,70.13
2018-12-17T11:31:26.099Z,70.26
2018-12-17T11:33:52.397Z,70.30
2018-12-17T11:36:18.679Z,70.04
2018-12-17T11:38:44.956Z,70.62
2018-12-17T11:41:11.271Z,70.28
2018-12-17T11:43:43.647Z,70.75
2018-12-17T11:46:03.859Z,70.29
2018-12-17T11:48:30.174Z,70.33
2018-12-17T11:50:56.469Z,71.01
2018-12-17T11:53:22.751Z,70.26
2018-12-17T11:55:49.042Z,70.45
2018-12-17T11:58:15.351Z,70.68
2018-12-17T12:00:41.641Z,70.88
2018-12-17T12:03:07.967Z,71.22
2018-12-17T12:05:34.241Z,72.52
2018-12-17T12:08:00.627Z,71.84
2018-12-17T12:10:26.906Z,72.12
2018-12-17T12:12:53.223Z,72.40
2018-12-17T12:15:19.520Z,72.49
2018-12-17T12:17:45.848Z,72.61
2018-12-17T12:20:12.113Z,72.73
2018-12-17T12:22:38.409Z,72.66
2018-12-17T12:25:04.697Z,72.68
2018-12-17T12:27:30.999Z,73.00
2018-12-17T12:29:57.283Z,73.39
2018-12-17T12:32:23.596Z,73.58
2018-12-17T12:34:49.891Z,73.88
2018-12-17T12:37:16.181Z,74.71
2018-12-17T12:39:42.462Z,74.65
2018-12-17T12:42:08.771Z,75.18
2018-12-17T12:44:35.043Z,74.87
2018-12-17T12:47:01.318Z,75.46
2018-12-17T12:49:27.597Z,75.21
2018-12-17T12:51:53.924Z,74.63
2018-12-17T12:54:20.217Z,74.40
2018-12-17T12:56:46.504Z,74.80
2018-12-17T12:59:12.804Z,74.46
2018-12-17T13:01:39.076Z,75.02
2018-12-17T13:04:05.362Z,75.36
2018-12-17T13:06:31.664Z,75.37
2018-12-17T13:08:57.958Z,74.39
2018-12-17T13:11:24.250Z,74.93
2018-12-17T13:13:50.531Z,75.24
2018-12-17T13:16:16.852Z,75.27
2018-12-17T13:18:43.134Z,75.43
2018-12-17T13:21:09.419Z,75.50
2018-12-17T13:23:35.697Z,75.96
2018-12-17T13:26:01.990Z,76.03
2018-12-17T13:28:28.283Z,75.53
2018-12-17T13:30:54.573Z,75.08
2018-12-17T13:33:20.878Z,75.40
2018-12-17T13:35:47.164Z,75.12
2018-12-17T13:38:13.486Z,75.14
2018-12-17T13:40:39.748Z,75.53
2018-12-17T13:43:06.030Z,74.76
2018-12-17T13:45:32.339Z,74.88
2018-12-17T13:47:58.632Z,75.71
2018-12-17T13:50:29.924Z,75.83
2018-12-17T13:52:51.192Z,75.87
2018-12-17T13:55:17.507Z,75.90
2018-12-17T13:57:43.786Z,74.70
2018-12-17T14:00:11.782Z,74.96
2018-12-17T14:02:37.185Z,74.42
2018-12-17T14:05:03.482Z,74.73
2018-12-17T14:07:29.765Z,75.56
2018-12-17T14:09:56.076Z,75.27
2018-12-17T14:12:22.378Z,76.69
2018-12-17T14:14:48.667Z,76.60
2018-12-17T14:17:14.978Z,77.23
2018-12-17T14:19:41.271Z,77.76
2018-12-17T14:22:07.564Z,78.45
2018-12-17T14:24:33.872Z,78.52
2018-12-17T14:27:02.013Z,78.69
2018-12-17T14:29:26.552Z,79.01
2018-12-17T14:31:52.824Z,78.92
2018-12-17T14:34:19.135Z,78.98
2018-12-17T14:36:45.419Z,78.54
2018-12-17T14:39:11.724Z,78.60
2018-12-17T14:41:38.011Z,78.31
2018-12-17T14:44:04.280Z,78.52
2018-12-17T14:46:30.567Z,79.06
2018-12-17T14:48:56.853Z,79.20
2018-12-17T14:51:23.185Z,79.20
2018-12-17T14:53:49.473Z,78.90
2018-12-17T14:56:15.768Z,79.09
2018-12-17T14:58:44.628Z,79.53
2018-12-17T15:01:08.332Z,79.17
2018-12-17T15:03:34.602Z,79.29
2018-12-17T15:06:00.911Z,79.50
2018-12-17T15:08:27.199Z,79.79
2018-12-17T15:10:53.520Z,79.89
2018-12-17T15:13:19.793Z,80.32
2018-12-17T15:15:46.087Z,80.32
2018-12-17T15:18:12.392Z,80.66
2018-12-17T15:20:38.696Z,80.16
2018-12-17T15:23:05.001Z,80.46
2018-12-17T15:25:31.305Z,80.33
2018-12-17T15:27:57.581Z,80.50
2018-12-17T15:30:23.869Z,80.20
2018-12-17T15:32:50.131Z,80.79
2018-12-17T15:35:16.410Z,80.71
2018-12-17T15:37:42.713Z,80.48
2018-12-17T15:40:08.995Z,80.97
2018-12-17T15:42:40.838Z,80.81
2018-12-17T15:45:01.617Z,80.30
2018-12-17T15:47:27.888Z,80.12
2018-12-17T15:49:54.199Z,80.09
2018-12-17T15:52:20.544Z,80.58
2018-12-17T15:54:46.829Z,80.67
2018-12-17T15:57:13.136Z,80.65
2018-12-17T15:59:39.576Z,80.16
2018-12-17T16:02:05.745Z,79.62
2018-12-17T16:04:32.048Z,79.59
2018-12-17T16:06:58.350Z,79.66
2018-12-17T16:09:24.624Z,79.69
2018-12-17T16:11:50.917Z,79.97
2018-12-17T16:14:17.246Z,79.65
2018-12-17T16:16:43.532Z,79.06
2018-12-17T16:19:09.816Z,78.98
2018-12-17T16:21:36.127Z,78.44
2018-12-17T16:24:02.419Z,77.44
2018-12-17T16:26:28.717Z,78.42
2018-12-17T16:28:55.030Z,79.24
2018-12-17T16:31:21.340Z,79.53
2018-12-17T16:33:47.613Z,78.82
2018-12-17T16:36:13.936Z,78.71
2018-12-17T16:38:40.262Z,78.97
2018-12-17T16:41:06.548Z,79.53
2018-12-17T16:43:32.854Z,80.35
2018-12-17T16:45:59.144Z,80.64
2018-12-17T16:48:25.429Z,80.08
2018-12-17T16:50:51.747Z,81.11
2018-12-17T16:53:18.025Z,81.65
2018-12-17T16:55:44.307Z,82.25
2018-12-17T16:58:10.605Z,82.74
2018-12-17T17:00:36.920Z,83.05
2018-12-17T17:03:03.201Z,83.18
2018-12-17T17:05:29.540Z,83.19
2018-12-17T17:07:55.843Z,83.10
2018-12-17T17:10:22.112Z,83.55
2018-12-17T17:12:48.412Z,83.53
2018-12-17T17:15:14.685Z,83.58
2018-12-17T17:17:40.977Z,83.55
2018-12-17T17:20:07.288Z,83.37
2018-12-17T17:22:33.573Z,83.34
2018-12-17T17:24:59.849Z,83.43
2018-12-17T17:27:26.164Z,83.38
2018-12-17T17:29:52.428Z,82.13
2018-12-17T17:32:18.722Z,82.30
2018-12-17T17:34:45.058Z,82.47
2018-12-17T17:37:11.367Z,82.54
2018-12-17T17:39:37.696Z,82.52
2018-12-17T17:42:04.004Z,82.42
2018-12-17T17:44:30.380Z,82.58
2018-12-17T17:46:56.656Z,82.62
2018-12-17T17:49:22.951Z,82.34
2018-12-17T17:51:49.231Z,82.62
2018-12-17T17:54:15.527Z,82.83
2018-12-17T17:56:41.841Z,82.10
2018-12-17T17:59:08.153Z,82.50
2018-12-17T18:01:34.420Z,81.92
2018-12-17T18:04:00.730Z,81.93
2018-12-17T18:06:27.010Z,81.99
2018-12-17T18:08:53.295Z,80.25
2018-12-17T18:11:19.607Z,80.10
2018-12-17T18:13:45.917Z,80.10
2018-12-17T18:16:12.191Z,79.81
2018-12-17T18:18:38.547Z,80.35
2018-12-17T18:21:04.831Z,80.64
2018-12-17T18:23:31.152Z,80.24
2018-12-17T18:25:57.449Z,80.21
2018-12-17T18:28:23.738Z,80.98
2018-12-17T18:30:50.016Z,80.59
2018-12-17T18:33:16.323Z,80.52
2018-12-17T18:35:42.605Z,80.93
2018-12-17T18:38:08.915Z,80.59
2018-12-17T18:40:35.243Z,80.42
2018-12-17T18:43:01.508Z,80.86
2018-12-17T18:45:27.800Z,81.02
2018-12-17T18:47:54.089Z,81.33
2018-12-17T18:50:20.376Z,82.09
2018-12-17T18:52:46.646Z,81.85
2018-12-17T18:55:12.944Z,82.07
2018-12-17T18:57:39.220Z,81.73
2018-12-17T19:00:08.813Z,82.04
2018-12-17T19:02:35.150Z,82.05
2018-12-17T19:05:01.420Z,82.36
2018-12-17T19:07:27.699Z,82.34
2018-12-17T19:09:53.996Z,82.98
2018-12-17T19:12:20.277Z,82.44
2018-12-17T19:14:46.564Z,82.98
2018-12-17T19:17:12.881Z,83.22
2018-12-17T19:19:39.174Z,83.39
2018-12-17T19:22:05.450Z,83.70
2018-12-17T19:24:31.742Z,83.41
2018-12-17T19:26:58.071Z,83.84
2018-12-17T19:29:24.351Z,83.29
2018-12-17T19:31:50.666Z,83.81
2018-12-17T19:34:16.965Z,83.46
2018-12-17T19:36:43.292Z,83.70
2018-12-17T19:39:09.589Z,84.01
2018-12-17T19:41:35.882Z,83.69
2018-12-17T19:44:02.179Z,83.56
2018-12-17T19:46:28.478Z,83.77
2018-12-17T19:48:54.754Z,83.83
2018-12-17T19:51:21.056Z,83.99
2018-12-17T19:53:47.338Z,84.07
2018-12-17T19:56:13.624Z,84.18
2018-12-17T19:58:39.961Z,84.20
2018-12-17T20:01:06.256Z,84.49
2018-12-17T20:03:32.539Z,84.78
2018-12-17T20:05:58.859Z,84.96
2018-12-17T20:08:25.134Z,84.80
2018-12-17T20:10:51.451Z,84.96
2018-12-17T20:13:17.788Z,85.63
2018-12-17T20:15:44.077Z,85.05
2018-12-17T20:18:10.357Z,85.36
2018-12-17T20:20:36.649Z,85.50
2018-12-17T20:23:02.963Z,85.18
2018-12-17T20:25:29.291Z,85.56
2018-12-17T20:27:55.602Z,85.48
2018-12-17T20:30:21.973Z,85.37
2018-12-17T20:32:53.581Z,85.85
2018-12-17T20:35:14.574Z,86.06
2018-12-17T20:37:40.878Z,85.88
2018-12-17T20:40:07.179Z,85.71
2018-12-17T20:42:33.505Z,86.06
2018-12-17T20:44:59.820Z,86.26
2018-12-17T20:47:26.120Z,86.28
2018-12-17T20:49:52.429Z,86.58
2018-12-17T20:52:18.771Z,86.73
2018-12-17T20:54:45.064Z,86.98
2018-12-17T20:57:11.374Z,87.07
2018-12-17T20:59:37.706Z,86.88
2018-12-17T21:02:04.021Z,87.08
2018-12-17T21:04:30.296Z,87.29
2018-12-17T21:06:56.572Z,87.59
2018-12-17T21:09:22.846Z,87.61
2018-12-17T21:11:49.133Z,87.68
2018-12-17T21:14:15.455Z,87.28
2018-12-17T21:16:41.823Z,87.74
2018-12-17T21:19:08.130Z,87.76
2018-12-17T21:21:34.418Z,87.90
2018-12-17T21:24:00.737Z,88.50
2018-12-17T21:26:27.024Z,88.23
2018-12-17T21:28:53.352Z,88.37
2018-12-17T21:31:19.630Z,88.51
2018-12-17T21:33:45.929Z,88.08
2018-12-17T21:36:12.242Z,88.31
2018-12-17T21:38:38.543Z,88.96
2018-12-17T21:41:05.020Z,88.97
2018-12-17T21:43:36.028Z,88.95
2018-12-17T21:45:57.564Z,88.71
2018-12-17T21:48:23.862Z,88.58
2018-12-17T21:50:50.200Z,88.93
2018-12-17T21:53:16.510Z,88.51
2018-12-17T21:55:42.787Z,89.02
2018-12-17T21:58:09.082Z,89.03
2018-12-17T22:00:35.426Z,89.09
2018-12-17T22:03:01.727Z,89.00
2018-12-17T22:05:32.153Z,88.81
2018-12-17T22:07:57.340Z,89.33
2018-12-17T22:10:23.636Z,89.14
2018-12-17T22:12:49.942Z,88.85
2018-12-17T22:15:16.209Z,88.84
2018-12-17T22:17:42.508Z,89.00
2018-12-17T22:20:08.802Z,88.85
2018-12-17T22:22:35.313Z,89.40
2018-12-17T22:25:01.762Z,89.73
2018-12-17T22:27:28.061Z,89.81
2018-12-17T22:29:54.374Z,89.37
2018-12-17T22:32:20.693Z,89.69
2018-12-17T22:34:46.959Z,89.77
2018-12-17T22:37:15.394Z,89.69
2018-12-17T22:39:39.574Z,89.82
2018-12-17T22:42:05.871Z,89.82
2018-12-17T22:44:32.335Z,90.04
2018-12-17T22:46:58.639Z,90.79
2018-12-17T22:49:26.010Z,90.93
2018-12-17T22:51:51.240Z,90.83
2018-12-17T22:54:17.542Z,90.89
2018-12-17T22:56:43.837Z,91.01
2018-12-17T22:59:10.217Z,91.01
2018-12-17T23:01:36.496Z,91.03
2018-12-17T23:04:02.786Z,91.32
2018-12-17T23:06:29.064Z,91.34
2018-12-17T23:08:55.477Z,91.37
2018-12-17T23:11:21.721Z,91.49
2018-12-17T23:13:48.014Z,91.49
2018-12-17T23:16:14.295Z,91.45
2018-12-17T23:18:40.600Z,91.35
2018-12-17T23:21:06.960Z,91.59
2018-12-17T23:23:33.231Z,91.77
2018-12-17T23:25:59.511Z,91.67
2018-12-17T23:28:25.818Z,91.32
2018-12-17T23:30:52.084Z,91.17
2018-12-17T23:33:18.400Z,91.18
2018-12-17T23:35:44.719Z,91.18
2018-12-17T23:38:11.006Z,91.14
2018-12-17T23:40:37.290Z,91.06
2018-12-17T23:43:03.567Z,91.19
2018-12-17T23:45:29.870Z,91.08
2018-12-17T23:47:56.187Z,91.16
2018-12-17T23:50:22.468Z,91.52
2018-12-17T23:52:48.777Z,91.53
2018-12-17T23:55:15.056Z,91.50
2018-12-17T23:57:41.354Z,91.81
